createdAt,value
2019-05-18T00:00:30.626Z,20.62
2019-05-18T00:05:37.968Z,22.25
2019-05-18T00:10:43.775Z,18.29
2019-05-18T00:15:50.490Z,19.62
2019-05-18T00:20:56.447Z,15.29
2019-05-18T00:26:04.755Z,16.25
2019-05-18T00:31:09.042Z,18.00
2019-05-18T00:36:14.891Z,17.00
2019-05-18T00:41:21.965Z,25.37
2019-05-18T00:46:28.579Z,17.00
2019-05-18T00:51:34.609Z,19.50
2019-05-18T00:56:38.161Z,15.00
2019-05-18T01:01:43.343Z,19.00
2019-05-18T01:06:49.808Z,19.25
2019-05-18T01:11:54.795Z,16.29
2019-05-18T01:17:02.151Z,18.37
2019-05-18T01:22:10.478Z,17.75
2019-05-18T01:27:16.183Z,22.71
2019-05-18T01:32:25.623Z,18.00
2019-05-18T01:37:29.115Z,20.00
2019-05-18T01:42:37.371Z,21.75
2019-05-18T01:47:44.322Z,18.00
2019-05-18T01:52:48.500Z,17.67
2019-05-18T01:57:55.255Z,23.62
2019-05-18T02:03:03.709Z,21.50
2019-05-18T02:08:12.927Z,22.75
2019-05-18T02:13:21.299Z,27.75
2019-05-18T02:18:28.989Z,26.00
2019-05-18T02:23:31.372Z,23.00
2019-05-18T02:28:39.726Z,21.00
2019-05-18T02:33:44.563Z,23.00
2019-05-18T02:38:51.375Z,29.78
2019-05-18T02:44:00.386Z,26.75
2019-05-18T02:49:08.860Z,19.75
2019-05-18T02:54:13.610Z,26.50
2019-05-18T02:59:21.948Z,26.00
2019-05-18T03:04:30.256Z,23.75
2019-05-18T03:09:37.924Z,26.87
2019-05-18T03:14:42.748Z,27.50
2019-05-18T03:19:49.483Z,27.87
2019-05-18T03:24:53.635Z,30.50
2019-05-18T03:30:00.555Z,31.62
2019-05-18T03:35:07.562Z,29.12
2019-05-18T03:40:16.772Z,33.00
2019-05-18T03:45:25.904Z,25.25
2019-05-18T03:50:33.446Z,25.67
2019-05-18T03:55:40.313Z,27.25
2019-05-18T04:00:44.583Z,27.40
2019-05-18T04:05:53.077Z,25.25
2019-05-18T04:11:00.501Z,25.37
2019-05-18T04:16:05.568Z,29.00
2019-05-18T04:21:12.317Z,29.00
2019-05-18T04:26:19.780Z,28.38
2019-05-18T04:31:32.359Z,25.37
2019-05-18T04:36:38.146Z,31.75
2019-05-18T04:41:44.959Z,27.75
2019-05-18T04:46:54.426Z,37.33
2019-05-18T04:52:02.407Z,26.75
2019-05-18T04:57:06.546Z,33.00
2019-05-18T05:02:10.822Z,31.75
2019-05-18T05:07:17.527Z,32.00
2019-05-18T05:12:21.749Z,34.33
2019-05-18T05:17:32.500Z,34.89
2019-05-18T05:22:41.691Z,29.00
2019-05-18T05:27:46.776Z,33.00
2019-05-18T05:32:49.987Z,23.00
2019-05-18T05:37:59.458Z,32.60
2019-05-18T05:43:05.252Z,31.37
2019-05-18T05:48:09.452Z,20.67
2019-05-18T05:53:15.343Z,28.00
2019-05-18T05:58:19.588Z,26.25
2019-05-18T06:03:23.227Z,21.00
2019-05-18T06:08:31.722Z,21.37
2019-05-18T06:13:37.789Z,20.50
2019-05-18T06:18:41.738Z,23.25
2019-05-18T06:23:50.229Z,24.00
2019-05-18T06:28:53.671Z,16.50
2019-05-18T06:33:58.953Z,19.29
2019-05-18T06:39:06.307Z,20.62
2019-05-18T06:44:11.010Z,21.00
2019-05-18T06:49:16.458Z,19.00
2019-05-18T06:54:24.158Z,21.00
2019-05-18T06:59:27.721Z,22.00
2019-05-18T07:04:34.235Z,13.62
2019-05-18T07:09:40.884Z,19.12
2019-05-18T07:14:49.363Z,22.00
2019-05-18T07:19:52.979Z,20.00
2019-05-18T07:24:58.887Z,19.25
2019-05-18T07:30:01.863Z,23.00
2019-05-18T07:35:07.994Z,17.00
2019-05-18T07:40:13.772Z,16.43
2019-05-18T07:45:19.317Z,17.00
2019-05-18T07:50:25.273Z,14.29
2019-05-18T07:55:32.222Z,21.00
2019-05-18T08:00:35.760Z,20.00
2019-05-18T08:05:39.416Z,20.50
2019-05-18T08:10:44.843Z,11.50
2019-05-18T08:15:48.646Z,14.60
2019-05-18T08:20:55.039Z,13.71
2019-05-18T08:25:59.581Z,13.67
2019-05-18T08:31:03.095Z,14.00
2019-05-18T08:36:10.086Z,15.29
2019-05-18T08:41:17.706Z,15.25
2019-05-18T08:46:25.389Z,11.71
2019-05-18T08:51:29.743Z,14.00
2019-05-18T08:56:34.355Z,15.29
2019-05-18T09:01:38.181Z,15.00
2019-05-18T09:06:45.950Z,13.29
2019-05-18T09:11:48.943Z,15.00
2019-05-18T09:16:52.710Z,14.00
2019-05-18T09:21:57.391Z,13.71
2019-05-18T09:27:03.223Z,9.17
2019-05-18T09:32:08.012Z,14.29
2019-05-18T09:37:14.379Z,12.00
2019-05-18T09:42:20.646Z,11.71
2019-05-18T09:47:27.146Z,12.00
2019-05-18T09:52:44.928Z,12.00
2019-05-18T09:57:43.433Z,11.86
2019-05-18T10:02:49.785Z,12.57
2019-05-18T10:07:56.152Z,12.71
2019-05-18T10:13:00.851Z,13.14
2019-05-18T10:18:07.347Z,13.00
2019-05-18T10:23:13.803Z,11.71
2019-05-18T10:28:17.192Z,27.33
2019-05-18T10:33:23.827Z,15.63
2019-05-18T10:38:27.826Z,16.00
2019-05-18T10:43:35.752Z,15.13
2019-05-18T10:48:42.335Z,14.57
2019-05-18T10:53:50.910Z,24.30
2019-05-18T10:58:59.480Z,14.57
2019-05-18T11:04:04.551Z,11.50
2019-05-18T11:09:07.908Z,31.33
2019-05-18T11:14:13.803Z,13.14
2019-05-18T11:19:18.902Z,8.83
2019-05-18T11:24:27.251Z,10.71
2019-05-18T11:29:32.316Z,11.00
2019-05-18T11:34:36.683Z,8.83
2019-05-18T11:39:42.529Z,12.33
2019-05-18T11:44:49.952Z,15.00
2019-05-18T11:49:56.379Z,10.29
2019-05-18T11:55:01.247Z,8.00
2019-05-18T12:00:07.036Z,14.43
2019-05-18T12:05:10.921Z,15.00
2019-05-18T12:10:18.576Z,14.71
2019-05-18T12:15:24.429Z,6.50
2019-05-18T12:20:30.946Z,18.00
2019-05-18T12:25:38.126Z,15.38
2019-05-18T12:30:41.312Z,15.67
2019-05-18T12:35:46.968Z,15.29
2019-05-18T12:40:52.251Z,13.00
2019-05-18T12:45:55.796Z,13.75
2019-05-18T12:51:04.076Z,13.14
2019-05-18T12:56:07.926Z,14.25
2019-05-18T13:01:11.753Z,13.80
2019-05-18T13:06:15.760Z,16.25
2019-05-18T13:11:22.870Z,21.71
2019-05-18T13:16:29.517Z,11.33
2019-05-18T13:21:37.233Z,10.14
2019-05-18T13:26:46.044Z,15.29
2019-05-18T13:31:54.535Z,18.71
2019-05-18T13:36:59.647Z,11.71
2019-05-18T13:42:07.394Z,15.00
2019-05-18T13:47:14.272Z,14.00
2019-05-18T13:52:21.267Z,14.75
2019-05-18T13:57:27.635Z,13.00
2019-05-18T14:02:33.423Z,17.14
2019-05-18T14:07:36.329Z,15.67
2019-05-18T14:12:41.128Z,20.86
2019-05-18T14:17:46.709Z,15.29
2019-05-18T14:22:53.935Z,15.50
2019-05-18T14:27:57.948Z,17.00
2019-05-18T14:33:05.384Z,12.00
2019-05-18T14:38:15.016Z,13.71
2019-05-18T14:43:18.821Z,17.25
2019-05-18T14:48:22.957Z,17.20
2019-05-18T14:53:31.446Z,12.86
2019-05-18T14:58:38.215Z,13.29
2019-05-18T15:03:44.581Z,13.14
2019-05-18T15:08:50.887Z,10.00
2019-05-18T15:13:58.187Z,14.71
2019-05-18T15:19:03.117Z,13.00
2019-05-18T15:24:08.786Z,18.67
2019-05-18T15:29:13.494Z,10.71
2019-05-18T15:34:21.490Z,14.50
2019-05-18T15:39:26.018Z,11.50
2019-05-18T15:44:32.680Z,10.67
2019-05-18T15:49:39.991Z,13.38
2019-05-18T15:54:44.262Z,10.00
2019-05-18T15:59:51.893Z,9.17
2019-05-18T16:04:56.980Z,11.00
2019-05-18T16:10:03.117Z,12.43
2019-05-18T16:15:08.379Z,12.40
2019-05-18T16:20:12.628Z,12.83
2019-05-18T16:25:19.570Z,36.40
2019-05-18T16:30:23.163Z,7.60
2019-05-18T16:35:27.895Z,22.29
2019-05-18T16:40:34.409Z,11.00
2019-05-18T16:45:39.086Z,13.00
2019-05-18T16:50:44.630Z,14.29
2019-05-18T16:55:48.420Z,10.00
2019-05-18T17:00:52.117Z,11.33
2019-05-18T17:05:58.627Z,11.43
2019-05-18T17:11:03.584Z,11.00
2019-05-18T17:16:07.482Z,8.00
2019-05-18T17:21:12.338Z,13.00
2019-05-18T17:26:17.214Z,10.00
2019-05-18T17:31:23.067Z,11.33
2019-05-18T17:36:27.783Z,10.00
2019-05-18T17:41:32.849Z,11.14
2019-05-18T17:46:37.946Z,9.00
2019-05-18T17:51:44.536Z,11.43
2019-05-18T17:56:51.180Z,16.29
2019-05-18T18:01:56.253Z,17.57
2019-05-18T18:07:03.403Z,18.87
2019-05-18T18:12:09.152Z,14.00
2019-05-18T18:17:17.729Z,13.71
2019-05-18T18:22:23.720Z,15.67
2019-05-18T18:27:29.793Z,15.29
2019-05-18T18:32:33.408Z,23.00
2019-05-18T18:37:39.387Z,15.86
2019-05-18T18:42:44.176Z,16.57
2019-05-18T18:47:51.796Z,22.25
2019-05-18T18:52:57.735Z,13.14
2019-05-18T18:58:04.699Z,18.86
2019-05-18T19:03:08.522Z,20.50
2019-05-18T19:08:14.639Z,15.43
2019-05-18T19:13:19.993Z,20.29
2019-05-18T19:18:27.263Z,16.25
2019-05-18T19:23:31.991Z,19.57
2019-05-18T19:28:37.766Z,21.37
2019-05-18T19:33:42.705Z,12.67
2019-05-18T19:38:48.398Z,37.25
2019-05-18T19:43:53.227Z,17.29
2019-05-18T19:48:57.930Z,16.29
2019-05-18T19:54:05.314Z,23.62
2019-05-18T19:59:10.939Z,16.71
2019-05-18T20:04:15.825Z,14.71
2019-05-18T20:09:21.550Z,14.29
2019-05-18T20:14:26.300Z,17.00
2019-05-18T20:19:39.091Z,15.00
2019-05-18T20:24:40.045Z,15.00
2019-05-18T20:29:44.741Z,16.43
2019-05-18T20:34:49.324Z,16.14
2019-05-18T20:39:55.522Z,20.29
2019-05-18T20:44:58.456Z,16.75
2019-05-18T20:50:04.806Z,16.14
2019-05-18T20:55:08.619Z,30.50
2019-05-18T21:00:14.920Z,15.86
2019-05-18T21:05:20.366Z,15.71
2019-05-18T21:10:24.280Z,26.25
2019-05-18T21:15:28.067Z,16.50
2019-05-18T21:20:33.334Z,17.00
2019-05-18T21:25:42.724Z,18.37
2019-05-18T21:30:48.056Z,18.12
2019-05-18T21:35:55.720Z,19.00
2019-05-18T21:41:04.413Z,17.12
2019-05-18T21:46:07.612Z,17.00
2019-05-18T21:51:15.166Z,16.50
2019-05-18T21:56:21.377Z,18.62
2019-05-18T22:01:28.868Z,16.12
2019-05-18T22:06:35.059Z,17.00
2019-05-18T22:11:41.630Z,19.87
2019-05-18T22:16:47.634Z,16.71
2019-05-18T22:21:55.001Z,17.75
2019-05-18T22:26:58.954Z,17.75
2019-05-18T22:32:03.941Z,16.00
2019-05-18T22:37:07.979Z,17.00
2019-05-18T22:42:13.755Z,13.43
2019-05-18T22:47:20.418Z,14.00
2019-05-18T22:52:27.978Z,16.50
2019-05-18T22:57:32.225Z,17.00
2019-05-18T23:02:36.448Z,15.20
2019-05-18T23:07:42.204Z,15.86
2019-05-18T23:12:47.912Z,16.62
2019-05-18T23:17:54.531Z,15.71
2019-05-18T23:23:00.804Z,13.71
2019-05-18T23:28:03.763Z,14.00
2019-05-18T23:33:08.540Z,17.00
2019-05-18T23:38:15.649Z,14.33
2019-05-18T23:43:20.283Z,15.14
2019-05-18T23:48:24.828Z,13.00
2019-05-18T23:53:31.900Z,15.75
2019-05-18T23:58:36.775Z,14.86
